createdAt,value
2018-01-19T00:00:38.461Z,4.78
2018-01-19T00:03:05.889Z,4.80
2018-01-19T00:05:33.448Z,4.68
2018-01-19T00:08:01.117Z,4.87
2018-01-19T00:10:28.668Z,5.97
2018-01-19T00:12:56.093Z,4.90
2018-01-19T00:15:23.580Z,4.85
2018-01-19T00:17:51.017Z,6.05
2018-01-19T00:20:18.502Z,7.40
2018-01-19T00:22:45.932Z,7.00
2018-01-19T00:25:14.343Z,7.55
2018-01-19T00:27:42.096Z,6.22
2018-01-19T00:30:09.733Z,8.23
2018-01-19T00:32:37.235Z,8.23
2018-01-19T00:35:04.652Z,7.90
2018-01-19T00:37:32.246Z,7.68
2018-01-19T00:39:59.696Z,8.38
2018-01-19T00:42:27.464Z,6.80
2018-01-19T00:44:54.890Z,7.93
2018-01-19T00:47:22.382Z,8.27
2018-01-19T00:49:50.008Z,8.30
2018-01-19T00:52:17.606Z,7.03
2018-01-19T00:54:45.025Z,7.37
2018-01-19T00:57:12.444Z,7.28
2018-01-19T00:59:39.878Z,8.20
2018-01-19T01:02:07.425Z,6.95
2018-01-19T01:04:34.926Z,7.40
2018-01-19T01:07:02.652Z,8.70
2018-01-19T01:09:30.126Z,7.62
2018-01-19T01:11:57.754Z,6.87
2018-01-19T01:14:25.232Z,5.75
2018-01-19T01:16:52.697Z,5.82
2018-01-19T01:19:20.260Z,7.37
2018-01-19T01:21:47.714Z,5.53
2018-01-19T01:24:15.169Z,5.55
2018-01-19T01:26:42.929Z,6.10
2018-01-19T01:29:10.389Z,4.78
2018-01-19T01:31:37.876Z,4.87
2018-01-19T01:34:05.612Z,4.93
2018-01-19T01:36:33.068Z,4.75
2018-01-19T01:39:00.700Z,5.03
2018-01-19T01:41:28.224Z,5.30
2018-01-19T01:43:55.646Z,6.22
2018-01-19T01:46:23.128Z,6.30
2018-01-19T01:49:02.489Z,7.50
2018-01-19T01:51:30.677Z,7.47
2018-01-19T01:53:58.105Z,7.20
2018-01-19T01:56:25.632Z,5.53
2018-01-19T01:58:53.104Z,6.87
2018-01-19T02:01:20.733Z,5.75
2018-01-19T02:03:48.219Z,6.18
2018-01-19T02:06:15.700Z,5.50
2018-01-19T02:08:43.121Z,6.40
2018-01-19T02:11:10.545Z,6.97
2018-01-19T02:13:38.149Z,6.15
2018-01-19T02:16:05.785Z,6.85
2018-01-19T02:18:33.249Z,7.45
2018-01-19T02:21:00.937Z,7.85
2018-01-19T02:23:28.614Z,9.32
2018-01-19T02:25:56.032Z,6.90
2018-01-19T02:28:23.454Z,8.18
2018-01-19T02:30:50.868Z,8.43
2018-01-19T02:33:18.330Z,8.25
2018-01-19T02:35:45.790Z,7.90
2018-01-19T02:38:13.347Z,8.88
2018-01-19T02:40:47.737Z,7.70
2018-01-19T02:43:15.225Z,10.10
2018-01-19T02:45:42.708Z,8.52
2018-01-19T02:48:10.140Z,8.38
2018-01-19T02:50:37.598Z,9.50
2018-01-19T02:53:05.090Z,8.15
2018-01-19T02:55:32.480Z,8.07
2018-01-19T02:57:59.972Z,8.38
2018-01-19T03:00:27.397Z,7.75
2018-01-19T03:02:54.990Z,7.45
2018-01-19T03:05:22.437Z,8.65
2018-01-19T03:07:49.905Z,8.35
2018-01-19T03:10:17.362Z,8.15
2018-01-19T03:12:44.790Z,8.30
2018-01-19T03:15:12.221Z,8.00
2018-01-19T03:17:39.736Z,9.18
2018-01-19T03:20:07.366Z,9.30
2018-01-19T03:22:34.796Z,8.02
2018-01-19T03:25:02.413Z,7.75
2018-01-19T03:27:30.044Z,8.18
2018-01-19T03:29:57.633Z,9.32
2018-01-19T03:32:25.398Z,9.10
2018-01-19T03:34:52.812Z,8.32
2018-01-19T03:37:20.324Z,9.70
2018-01-19T03:39:47.749Z,9.85
2018-01-19T03:42:15.169Z,8.00
2018-01-19T03:44:42.589Z,9.77
2018-01-19T03:47:10.053Z,8.88
2018-01-19T03:49:37.490Z,7.93
2018-01-19T03:52:05.060Z,9.52
2018-01-19T03:54:32.497Z,8.77
2018-01-19T03:56:59.917Z,10.20
2018-01-19T03:59:27.352Z,8.35
2018-01-19T04:01:54.902Z,11.10
2018-01-19T04:04:22.529Z,10.48
2018-01-19T04:06:50.116Z,11.70
2018-01-19T04:09:17.577Z,10.05
2018-01-19T04:11:45.006Z,8.80
2018-01-19T04:14:12.434Z,10.25
2018-01-19T04:16:39.856Z,9.50
2018-01-19T04:19:07.290Z,9.82
2018-01-19T04:21:34.874Z,11.57
2018-01-19T04:24:02.628Z,11.07
2018-01-19T04:26:30.061Z,10.68
2018-01-19T04:28:57.491Z,11.82
2018-01-19T04:31:24.937Z,10.73
2018-01-19T04:33:52.518Z,11.23
2018-01-19T04:36:20.141Z,11.93
2018-01-19T04:38:47.681Z,13.18
2018-01-19T04:41:15.130Z,11.63
2018-01-19T04:43:42.605Z,11.23
2018-01-19T04:46:10.380Z,12.93
2018-01-19T04:48:37.829Z,12.13
2018-01-19T04:51:05.477Z,11.50
2018-01-19T04:53:33.056Z,13.20
2018-01-19T04:56:00.495Z,13.00
2018-01-19T04:58:27.972Z,12.37
2018-01-19T05:00:55.728Z,11.95
2018-01-19T05:03:23.156Z,13.25
2018-01-19T05:05:50.645Z,12.45
2018-01-19T05:08:18.073Z,13.32
2018-01-19T05:10:45.516Z,10.15
2018-01-19T05:13:13.020Z,9.77
2018-01-19T05:15:40.665Z,11.20
2018-01-19T05:18:08.172Z,11.73
2018-01-19T05:20:35.701Z,10.68
2018-01-19T05:23:03.129Z,11.15
2018-01-19T05:25:30.602Z,10.52
2018-01-19T05:27:58.029Z,9.68
2018-01-19T05:30:25.530Z,9.70
2018-01-19T05:32:53.160Z,9.23
2018-01-19T05:35:20.753Z,10.30
2018-01-19T05:37:48.212Z,10.18
2018-01-19T05:40:15.864Z,10.93
2018-01-19T05:42:43.339Z,10.65
2018-01-19T05:45:10.793Z,11.82
2018-01-19T05:47:38.264Z,11.63
2018-01-19T05:50:05.813Z,11.18
2018-01-19T05:52:33.254Z,11.93
2018-01-19T05:55:00.638Z,10.65
2018-01-19T05:57:28.185Z,10.23
2018-01-19T05:59:55.613Z,10.45
2018-01-19T06:02:23.100Z,11.57
2018-01-19T06:04:50.860Z,11.15
2018-01-19T06:07:18.630Z,12.52
2018-01-19T06:09:46.261Z,12.18
2018-01-19T06:12:13.859Z,12.75
2018-01-19T06:14:41.485Z,12.23
2018-01-19T06:17:08.988Z,9.40
2018-01-19T06:19:36.413Z,10.82
2018-01-19T06:22:03.995Z,10.00
2018-01-19T06:24:31.416Z,10.88
2018-01-19T06:26:58.905Z,10.45
2018-01-19T06:29:26.365Z,11.23
2018-01-19T06:31:54.129Z,12.02
2018-01-19T06:34:21.559Z,10.02
2018-01-19T06:36:48.995Z,10.38
2018-01-19T06:39:16.417Z,10.23
2018-01-19T06:41:43.881Z,11.27
2018-01-19T06:44:11.313Z,10.65
2018-01-19T06:46:38.878Z,9.20
2018-01-19T06:49:06.510Z,9.15
2018-01-19T06:51:34.013Z,9.25
2018-01-19T06:54:01.461Z,9.52
2018-01-19T06:56:28.905Z,8.60
2018-01-19T06:58:56.377Z,8.57
2018-01-19T07:01:23.817Z,8.80
2018-01-19T07:03:51.389Z,8.73
2018-01-19T07:06:18.832Z,8.15
2018-01-19T07:08:46.259Z,7.62
2018-01-19T07:11:13.673Z,6.87
2018-01-19T07:13:41.110Z,6.47
2018-01-19T07:16:08.675Z,5.70
2018-01-19T07:18:36.110Z,6.60
2018-01-19T07:21:03.537Z,6.28
2018-01-19T07:23:30.972Z,6.28
2018-01-19T07:25:58.393Z,6.10
2018-01-19T07:28:25.829Z,7.22
2018-01-19T07:30:53.325Z,6.30
2018-01-19T07:33:20.867Z,7.65
2018-01-19T07:35:48.339Z,7.72
2018-01-19T07:38:15.798Z,7.03
2018-01-19T07:40:43.414Z,7.60
2018-01-19T07:43:11.827Z,7.10
2018-01-19T07:45:39.224Z,9.32
2018-01-19T07:48:06.857Z,8.10
2018-01-19T07:50:34.614Z,9.40
2018-01-19T07:53:02.037Z,8.65
2018-01-19T07:55:29.463Z,9.30
2018-01-19T07:57:56.993Z,10.18
2018-01-19T08:00:24.622Z,9.27
2018-01-19T08:02:52.224Z,11.25
2018-01-19T08:05:19.651Z,10.40
2018-01-19T08:07:47.089Z,11.52
2018-01-19T08:10:14.593Z,13.10
2018-01-19T08:12:42.049Z,13.73
2018-01-19T08:15:09.818Z,12.60
2018-01-19T08:17:37.264Z,11.55
2018-01-19T08:20:04.685Z,13.27
2018-01-19T08:22:32.120Z,13.57
2018-01-19T08:24:59.653Z,15.10
2018-01-19T08:27:27.280Z,15.30
2018-01-19T08:29:54.869Z,13.45
2018-01-19T08:32:22.297Z,11.98
2018-01-19T08:34:49.721Z,13.90
2018-01-19T08:37:17.149Z,15.63
2018-01-19T08:39:44.576Z,15.13
2018-01-19T08:42:12.062Z,15.30
2018-01-19T08:44:39.516Z,13.93
2018-01-19T08:47:06.985Z,13.40
2018-01-19T08:49:34.436Z,11.98
2018-01-19T08:52:01.993Z,11.10
2018-01-19T08:54:29.461Z,10.98
2018-01-19T08:56:56.905Z,11.25
2018-01-19T08:59:24.537Z,11.15
2018-01-19T09:01:52.037Z,10.32
2018-01-19T09:04:19.637Z,12.27
2018-01-19T09:06:47.252Z,10.38
2018-01-19T09:09:14.677Z,11.27
2018-01-19T09:11:42.137Z,10.15
2018-01-19T09:14:09.726Z,10.50
2018-01-19T09:16:37.184Z,10.63
2018-01-19T09:19:04.622Z,11.68
2018-01-19T09:21:32.045Z,10.80
2018-01-19T09:23:59.532Z,10.52
2018-01-19T09:26:26.953Z,9.90
2018-01-19T09:28:54.477Z,11.70
2018-01-19T09:31:21.897Z,9.05
2018-01-19T09:33:49.321Z,9.32
2018-01-19T09:36:16.845Z,8.57
2018-01-19T09:38:44.321Z,10.63
2018-01-19T09:41:11.937Z,9.30
2018-01-19T09:43:39.457Z,8.80
2018-01-19T09:46:06.887Z,9.55
2018-01-19T09:48:34.347Z,8.15
2018-01-19T09:51:01.854Z,7.93
2018-01-19T09:53:29.359Z,8.70
2018-01-19T09:55:57.739Z,9.00
2018-01-19T09:58:25.166Z,9.00
2018-01-19T10:00:52.649Z,8.85
2018-01-19T10:03:20.139Z,8.27
2018-01-19T10:05:47.878Z,7.60
2018-01-19T10:08:15.507Z,9.05
2018-01-19T10:10:42.996Z,7.45
2018-01-19T10:13:10.422Z,8.95
2018-01-19T10:15:37.915Z,8.10
2018-01-19T10:18:05.373Z,8.73
2018-01-19T10:20:32.799Z,9.10
2018-01-19T10:23:00.384Z,8.73
2018-01-19T10:25:27.847Z,9.10
2018-01-19T10:27:55.476Z,9.88
2018-01-19T10:30:22.939Z,9.20
2018-01-19T10:32:50.529Z,9.35
2018-01-19T10:35:18.177Z,9.68
2018-01-19T10:37:45.585Z,10.02
2018-01-19T10:40:13.112Z,9.10
2018-01-19T10:42:40.565Z,8.93
2018-01-19T10:45:08.121Z,8.63
2018-01-19T10:47:35.881Z,9.77
2018-01-19T10:50:03.311Z,9.50
2018-01-19T10:52:30.738Z,7.87
2018-01-19T10:54:58.161Z,8.60
2018-01-19T10:57:25.587Z,8.85
2018-01-19T10:59:53.172Z,8.25
2018-01-19T11:02:21.481Z,7.53
2018-01-19T11:04:48.914Z,8.07
2018-01-19T11:07:16.468Z,8.30
2018-01-19T11:09:43.929Z,7.45
2018-01-19T11:12:11.385Z,7.22
2018-01-19T11:14:38.849Z,7.15
2018-01-19T11:17:06.309Z,8.07
2018-01-19T11:19:33.748Z,7.25
2018-01-19T11:22:01.170Z,6.68
2018-01-19T11:24:28.677Z,6.97
2018-01-19T11:26:56.436Z,6.22
2018-01-19T11:29:23.863Z,7.35
2018-01-19T11:31:51.365Z,6.35
2018-01-19T11:34:18.787Z,5.00
2018-01-19T11:36:46.269Z,5.90
2018-01-19T11:39:13.728Z,6.30
2018-01-19T11:41:41.356Z,5.72
2018-01-19T11:44:08.854Z,5.00
2018-01-19T11:46:36.277Z,5.62
2018-01-19T11:49:03.702Z,5.07
2018-01-19T11:51:31.197Z,5.22
2018-01-19T11:53:58.782Z,4.72
2018-01-19T11:56:26.209Z,5.25
2018-01-19T11:58:53.633Z,5.25
2018-01-19T12:01:21.057Z,5.43
2018-01-19T12:03:48.617Z,5.22
2018-01-19T12:06:16.272Z,5.05
2018-01-19T12:08:43.839Z,4.97
2018-01-19T12:11:11.600Z,6.47
2018-01-19T12:13:39.236Z,4.68
2018-01-19T12:16:06.690Z,5.32
2018-01-19T12:18:34.184Z,5.62
2018-01-19T12:21:01.737Z,5.85
2018-01-19T12:23:29.197Z,4.75
2018-01-19T12:25:56.661Z,6.03
2018-01-19T12:28:24.081Z,5.15
2018-01-19T12:30:51.576Z,5.20
2018-01-19T12:33:19.029Z,4.80
2018-01-19T12:35:46.662Z,5.20
2018-01-19T12:38:14.356Z,5.15
2018-01-19T12:40:42.017Z,4.60
2018-01-19T12:43:09.781Z,4.22
2018-01-19T12:45:37.260Z,4.15
2018-01-19T12:48:04.653Z,4.47
2018-01-19T12:50:32.152Z,4.45
2018-01-19T12:52:59.919Z,3.95
2018-01-19T12:55:27.324Z,3.65
2018-01-19T12:57:54.745Z,3.87
2018-01-19T13:00:22.283Z,3.87
2018-01-19T13:02:49.700Z,3.30
2018-01-19T13:05:17.117Z,4.07
2018-01-19T13:07:44.573Z,3.37
2018-01-19T13:10:12.129Z,3.33
2018-01-19T13:12:39.589Z,3.35
2018-01-19T13:15:07.010Z,4.60
2018-01-19T13:17:34.437Z,7.05
2018-01-19T13:20:01.863Z,3.67
2018-01-19T13:22:29.417Z,2.90
2018-01-19T13:24:56.848Z,2.60
2018-01-19T13:27:24.333Z,3.00
2018-01-19T13:29:51.963Z,2.83
2018-01-19T13:32:19.552Z,3.53
2018-01-19T13:34:47.009Z,9.88
2018-01-19T13:37:14.428Z,2.72
2018-01-19T13:39:41.935Z,2.80
2018-01-19T13:42:09.689Z,3.65
2018-01-19T13:44:37.113Z,2.80
2018-01-19T13:47:04.529Z,3.03
2018-01-19T13:49:31.967Z,3.45
2018-01-19T13:51:59.521Z,3.67
2018-01-19T13:54:26.938Z,3.95
2018-01-19T13:56:54.353Z,3.12
2018-01-19T13:59:21.893Z,3.65
2018-01-19T14:01:49.304Z,2.80
2018-01-19T14:04:17.486Z,3.05
2018-01-19T14:06:45.058Z,3.17
2018-01-19T14:09:12.653Z,3.35
2018-01-19T14:11:40.075Z,3.28
2018-01-19T14:14:07.493Z,3.53
2018-01-19T14:16:34.912Z,4.20
2018-01-19T14:19:02.389Z,2.95
2018-01-19T14:21:29.802Z,3.15
2018-01-19T14:23:58.170Z,3.80
2018-01-19T14:26:26.358Z,4.12
2018-01-19T14:28:53.844Z,4.12
2018-01-19T14:31:21.269Z,4.20
2018-01-19T14:33:48.689Z,3.70
2018-01-19T14:36:16.122Z,3.97
2018-01-19T14:38:43.617Z,3.55
2018-01-19T14:41:11.141Z,3.55
2018-01-19T14:43:38.777Z,3.25
2018-01-19T14:46:06.216Z,4.53
2018-01-19T14:48:34.410Z,3.45
2018-01-19T14:51:01.841Z,3.20
2018-01-19T14:53:29.357Z,4.30
2018-01-19T14:55:56.781Z,2.95
2018-01-19T14:58:24.201Z,3.67
2018-01-19T15:00:51.621Z,2.90
2018-01-19T15:03:19.053Z,2.58
2018-01-19T15:05:46.541Z,3.33
2018-01-19T15:08:14.102Z,2.40
2018-01-19T15:10:41.733Z,2.80
2018-01-19T15:13:09.161Z,3.30
2018-01-19T15:15:36.580Z,2.45
2018-01-19T15:18:04.137Z,2.83
2018-01-19T15:20:31.568Z,3.15
2018-01-19T15:22:59.346Z,3.08
2018-01-19T15:25:26.917Z,2.20
2018-01-19T15:27:54.685Z,2.37
2018-01-19T15:30:22.101Z,2.55
2018-01-19T15:32:49.520Z,1.98
2018-01-19T15:35:17.062Z,1.75
2018-01-19T15:37:44.981Z,2.30
2018-01-19T15:40:13.500Z,2.00
2018-01-19T15:42:40.924Z,2.90
2018-01-19T15:45:08.360Z,1.65
2018-01-19T15:47:35.777Z,2.53
2018-01-19T15:50:03.226Z,1.83
2018-01-19T15:52:30.794Z,1.95
2018-01-19T15:54:58.244Z,1.85
2018-01-19T15:57:25.665Z,1.65
2018-01-19T15:59:53.173Z,2.50
2018-01-19T16:02:20.601Z,2.25
2018-01-19T16:04:48.018Z,2.75
2018-01-19T16:07:15.445Z,2.42
2018-01-19T16:09:42.901Z,2.33
2018-01-19T16:12:10.345Z,2.40
2018-01-19T16:14:37.809Z,1.58
2018-01-19T16:17:05.262Z,2.25
2018-01-19T16:19:32.760Z,1.85
2018-01-19T16:22:00.292Z,3.28
2018-01-19T16:24:27.708Z,2.22
2018-01-19T16:26:55.200Z,2.55
2018-01-19T16:29:22.625Z,2.65
2018-01-19T16:31:50.119Z,2.58
2018-01-19T16:34:17.533Z,2.28
2018-01-19T16:36:44.953Z,2.62
2018-01-19T16:39:12.381Z,2.00
2018-01-19T16:41:39.853Z,2.55
2018-01-19T16:44:07.272Z,2.60
2018-01-19T16:46:34.688Z,2.50
2018-01-19T16:49:07.219Z,2.40
2018-01-19T16:51:29.748Z,2.97
2018-01-19T16:53:57.241Z,3.70
2018-01-19T16:56:24.705Z,3.10
2018-01-19T16:58:52.469Z,2.42
2018-01-19T17:01:20.228Z,2.55
2018-01-19T17:03:47.645Z,2.33
2018-01-19T17:06:15.065Z,2.30
2018-01-19T17:08:42.609Z,2.97
2018-01-19T17:11:10.257Z,2.90
2018-01-19T17:13:37.653Z,2.95
2018-01-19T17:16:05.281Z,2.80
2018-01-19T17:18:32.749Z,3.85
2018-01-19T17:21:00.174Z,3.75
2018-01-19T17:23:27.660Z,4.10
2018-01-19T17:25:55.120Z,3.17
2018-01-19T17:28:22.577Z,3.00
2018-01-19T17:30:50.205Z,3.25
2018-01-19T17:33:17.798Z,2.53
2018-01-19T17:35:45.493Z,2.05
2018-01-19T17:38:12.912Z,2.65
2018-01-19T17:40:40.367Z,2.33
2018-01-19T17:43:07.933Z,2.30
2018-01-19T17:45:35.349Z,1.87
2018-01-19T17:48:02.769Z,2.45
2018-01-19T17:50:30.316Z,1.55
2018-01-19T17:52:57.833Z,2.72
2018-01-19T17:55:25.433Z,2.80
2018-01-19T17:57:52.920Z,2.25
2018-01-19T18:00:20.353Z,2.85
2018-01-19T18:02:47.809Z,2.28
2018-01-19T18:05:15.370Z,3.30
2018-01-19T18:07:43.134Z,4.15
2018-01-19T18:10:10.553Z,3.40
2018-01-19T18:12:37.973Z,3.30
2018-01-19T18:15:05.501Z,3.33
2018-01-19T18:17:32.962Z,3.55
2018-01-19T18:20:00.597Z,4.70
2018-01-19T18:22:28.202Z,4.30
2018-01-19T18:24:55.840Z,5.00
2018-01-19T18:27:23.306Z,4.95
2018-01-19T18:29:50.733Z,4.00
2018-01-19T18:32:18.233Z,4.10
2018-01-19T18:34:45.785Z,3.90
2018-01-19T18:37:13.242Z,4.55
2018-01-19T18:39:40.701Z,4.50
2018-01-19T18:42:08.329Z,4.65
2018-01-19T18:44:35.932Z,4.95
2018-01-19T18:47:03.345Z,5.43
2018-01-19T18:49:30.765Z,6.10
2018-01-19T18:51:58.298Z,6.20
2018-01-19T18:54:25.725Z,6.20
2018-01-19T18:56:53.214Z,6.35
2018-01-19T18:59:20.632Z,7.55
2018-01-19T19:01:48.057Z,5.93
2018-01-19T19:04:15.589Z,6.30
2018-01-19T19:06:43.041Z,7.60
2018-01-19T19:09:10.693Z,8.48
2018-01-19T19:11:38.262Z,7.65
2018-01-19T19:14:05.720Z,8.55
2018-01-19T19:16:33.140Z,7.45
2018-01-19T19:19:00.573Z,8.73
2018-01-19T19:21:28.921Z,11.07
2018-01-19T19:23:56.666Z,9.82
2018-01-19T19:26:24.137Z,10.80
2018-01-19T19:28:51.560Z,10.43
2018-01-19T19:31:19.753Z,10.55
2018-01-19T19:33:47.229Z,10.25
2018-01-19T19:36:14.860Z,9.27
2018-01-19T19:38:42.383Z,9.43
2018-01-19T19:41:09.917Z,11.07
2018-01-19T19:43:37.563Z,11.10
2018-01-19T19:46:05.005Z,11.05
2018-01-19T19:48:32.592Z,10.52
2018-01-19T19:51:00.352Z,9.13
2018-01-19T19:53:27.812Z,8.88
2018-01-19T19:55:55.242Z,8.38
2018-01-19T19:58:22.665Z,8.18
2018-01-19T20:00:50.194Z,7.40
2018-01-19T20:03:17.949Z,6.93
2018-01-19T20:05:45.376Z,6.57
2018-01-19T20:08:12.793Z,7.20
2018-01-19T20:10:40.325Z,6.53
2018-01-19T20:13:08.093Z,6.05
2018-01-19T20:15:35.721Z,5.97
2018-01-19T20:18:03.265Z,6.93
2018-01-19T20:20:30.693Z,6.75
2018-01-19T20:22:58.133Z,5.75
2018-01-19T20:25:25.617Z,6.65
2018-01-19T20:27:53.149Z,6.20
2018-01-19T20:30:20.909Z,5.45
2018-01-19T20:32:48.678Z,6.65
2018-01-19T20:35:16.318Z,5.93
2018-01-19T20:37:43.760Z,5.50
2018-01-19T20:40:11.364Z,6.25
2018-01-19T20:42:38.989Z,7.30
2018-01-19T20:45:06.466Z,7.00
2018-01-19T20:47:33.933Z,6.03
2018-01-19T20:50:01.398Z,6.68
2018-01-19T20:52:28.881Z,6.10
2018-01-19T20:54:57.330Z,6.10
2018-01-19T20:57:24.793Z,8.15
2018-01-19T20:59:52.213Z,6.78
2018-01-19T21:02:19.709Z,6.85
2018-01-19T21:04:47.342Z,7.35
2018-01-19T21:07:14.765Z,7.37
2018-01-19T21:09:42.258Z,9.50
2018-01-19T21:12:09.751Z,7.82
2018-01-19T21:14:37.238Z,7.60
2018-01-19T21:17:04.764Z,8.20
2018-01-19T21:19:32.189Z,8.23
2018-01-19T21:21:59.617Z,7.40
2018-01-19T21:24:27.965Z,8.75
2018-01-19T21:26:55.516Z,10.50
2018-01-19T21:29:23.291Z,7.82
2018-01-19T21:31:50.914Z,8.45
2018-01-19T21:34:18.337Z,7.93
2018-01-19T21:36:45.866Z,8.73
2018-01-19T21:39:13.298Z,6.53
2018-01-19T21:41:40.881Z,8.15
2018-01-19T21:44:08.334Z,7.03
2018-01-19T21:46:35.964Z,8.23
2018-01-19T21:49:03.757Z,8.02
2018-01-19T21:51:31.361Z,8.63
2018-01-19T21:53:59.085Z,7.97
2018-01-19T21:56:26.516Z,8.38
2018-01-19T21:58:53.940Z,7.72
2018-01-19T22:01:21.362Z,7.75
2018-01-19T22:03:48.921Z,8.30
2018-01-19T22:06:16.548Z,7.90
2018-01-19T22:08:44.217Z,7.62
2018-01-19T22:11:11.909Z,8.70
2018-01-19T22:13:39.545Z,8.98
2018-01-19T22:16:07.137Z,9.27
2018-01-19T22:18:34.593Z,11.07
2018-01-19T22:21:02.021Z,9.65
2018-01-19T22:23:29.437Z,8.07
2018-01-19T22:25:56.861Z,7.90
2018-01-19T22:28:24.353Z,9.02
2018-01-19T22:30:51.877Z,8.75
2018-01-19T22:33:19.334Z,7.20
2018-01-19T22:35:46.756Z,7.62
2018-01-19T22:38:14.253Z,7.90
2018-01-19T22:40:42.017Z,6.15
2018-01-19T22:43:09.448Z,8.48
2018-01-19T22:45:36.865Z,6.40
2018-01-19T22:48:04.294Z,6.20
2018-01-19T22:50:31.777Z,6.87
2018-01-19T22:52:59.204Z,6.95
2018-01-19T22:55:26.666Z,6.70
2018-01-19T22:57:54.089Z,6.62
2018-01-19T23:00:21.514Z,6.25
2018-01-19T23:02:49.004Z,5.65
2018-01-19T23:05:16.497Z,5.97
2018-01-19T23:07:43.959Z,7.22
2018-01-19T23:10:11.383Z,6.93
2018-01-19T23:12:38.804Z,7.70
2018-01-19T23:15:06.330Z,6.18
2018-01-19T23:17:33.889Z,7.68
2018-01-19T23:20:01.645Z,5.97
2018-01-19T23:22:29.069Z,6.93
2018-01-19T23:24:56.491Z,6.60
2018-01-19T23:27:23.917Z,7.18
2018-01-19T23:29:51.441Z,7.65
2018-01-19T23:32:18.945Z,6.80
2018-01-19T23:34:46.705Z,6.90
2018-01-19T23:37:14.121Z,6.60
2018-01-19T23:39:41.629Z,6.87
2018-01-19T23:42:09.386Z,6.70
2018-01-19T23:44:36.844Z,7.07
2018-01-19T23:47:04.803Z,7.00
2018-01-19T23:49:32.329Z,5.70
2018-01-19T23:51:59.833Z,6.70
2018-01-19T23:54:27.285Z,6.68
2018-01-19T23:56:54.749Z,7.90
2018-01-19T23:59:22.209Z,7.57
